<?xml version="1.0" encoding="UTF-8" standalone="no" ?>
<gpx xmlns="http://www.topografix.com/GPX/1/1" xmlns:xsi="http://www.w3.org/2001/XMLSchema-instance" xsi:schemaLocation="http://www.topografix.com/GPX/1/1 http://www.topografix.com/GPX/1/1/gpx.xsd" version="1.1" creator="VisuGPX - https://www.visugpx.com">
  <metadata>
    <name>Course à pied en soirée</name>
  </metadata>
  <trk>
    <name><![CDATA[Course à pied en soirée_1]]></name>
    <trkseg>
      <trkpt lat="48.71091" lon="7.16308">
        <ele>317.2</ele>
        <time>2023-10-03T16:54:41Z</time>
      </trkpt>
      <trkpt lat="48.71103" lon="7.16284">
        <ele>316.9</ele>
        <time>2023-10-03T16:54:47Z</time>
      </trkpt>
      <trkpt lat="48.71119" lon="7.16271">
        <ele>316.6</ele>
        <time>2023-10-03T16:54:52Z</time>
      </trkpt>
      <trkpt lat="48.71136" lon="7.16262">
        <ele>316.2</ele>
        <time>2023-10-03T16:54:57Z</time>
      </trkpt>
      <trkpt lat="48.71156" lon="7.16263">
        <ele>315.6</ele>
        <time>2023-10-03T16:55:02Z</time>
      </trkpt>
      <trkpt lat="48.71174" lon="7.16273">
        <ele>315.1</ele>
        <time>2023-10-03T16:55:07Z</time>
      </trkpt>
      <trkpt lat="48.71189" lon="7.16289">
        <ele>313.9</ele>
        <time>2023-10-03T16:55:13Z</time>
      </trkpt>
      <trkpt lat="48.71206" lon="7.16303">
        <ele>313.2</ele>
        <time>2023-10-03T16:55:19Z</time>
      </trkpt>
      <trkpt lat="48.71224" lon="7.16318">
        <ele>312.6</ele>
        <time>2023-10-03T16:55:25Z</time>
      </trkpt>
      <trkpt lat="48.71242" lon="7.16333">
        <ele>312.1</ele>
        <time>2023-10-03T16:55:31Z</time>
      </trkpt>
      <trkpt lat="48.71259" lon="7.16346">
        <ele>311.8</ele>
        <time>2023-10-03T16:55:37Z</time>
      </trkpt>
      <trkpt lat="48.71276" lon="7.16357">
        <ele>311.5</ele>
        <time>2023-10-03T16:55:43Z</time>
      </trkpt>
      <trkpt lat="48.71296" lon="7.16367">
        <ele>311.4</ele>
        <time>2023-10-03T16:55:49Z</time>
      </trkpt>
      <trkpt lat="48.71316" lon="7.16376">
        <ele>311.1</ele>
        <time>2023-10-03T16:55:55Z</time>
      </trkpt>
      <trkpt lat="48.71337" lon="7.16383">
        <ele>310.9</ele>
        <time>2023-10-03T16:56:02Z</time>
      </trkpt>
      <trkpt lat="48.71356" lon="7.16391">
        <ele>310.5</ele>
        <time>2023-10-03T16:56:08Z</time>
      </trkpt>
      <trkpt lat="48.71376" lon="7.16394">
        <ele>310</ele>
        <time>2023-10-03T16:56:14Z</time>
      </trkpt>
      <trkpt lat="48.71394" lon="7.16399">
        <ele>309.3</ele>
        <time>2023-10-03T16:56:19Z</time>
      </trkpt>
      <trkpt lat="48.71413" lon="7.16403">
        <ele>308.4</ele>
        <time>2023-10-03T16:56:24Z</time>
      </trkpt>
      <trkpt lat="48.71431" lon="7.16406">
        <ele>307.4</ele>
        <time>2023-10-03T16:56:29Z</time>
      </trkpt>
      <trkpt lat="48.71449" lon="7.16408">
        <ele>306.3</ele>
        <time>2023-10-03T16:56:34Z</time>
      </trkpt>
      <trkpt lat="48.7147" lon="7.16408">
        <ele>305.2</ele>
        <time>2023-10-03T16:56:40Z</time>
      </trkpt>
      <trkpt lat="48.71488" lon="7.16403">
        <ele>304.5</ele>
        <time>2023-10-03T16:56:45Z</time>
      </trkpt>
      <trkpt lat="48.71506" lon="7.16397">
        <ele>303.8</ele>
        <time>2023-10-03T16:56:50Z</time>
      </trkpt>
      <trkpt lat="48.71524" lon="7.16383">
        <ele>303</ele>
        <time>2023-10-03T16:56:56Z</time>
      </trkpt>
      <trkpt lat="48.71542" lon="7.16369">
        <ele>302.2</ele>
        <time>2023-10-03T16:57:02Z</time>
      </trkpt>
      <trkpt lat="48.71559" lon="7.16361">
        <ele>301.8</ele>
        <time>2023-10-03T16:57:08Z</time>
      </trkpt>
      <trkpt lat="48.71577" lon="7.16358">
        <ele>302.5</ele>
        <time>2023-10-03T16:57:15Z</time>
      </trkpt>
      <trkpt lat="48.71593" lon="7.16344">
        <ele>304.4</ele>
        <time>2023-10-03T16:57:22Z</time>
      </trkpt>
      <trkpt lat="48.7161" lon="7.16331">
        <ele>305.4</ele>
        <time>2023-10-03T16:57:31Z</time>
      </trkpt>
      <trkpt lat="48.7163" lon="7.16331">
        <ele>304.9</ele>
        <time>2023-10-03T16:57:38Z</time>
      </trkpt>
      <trkpt lat="48.7165" lon="7.16335">
        <ele>304.3</ele>
        <time>2023-10-03T16:57:46Z</time>
      </trkpt>
      <trkpt lat="48.71669" lon="7.16338">
        <ele>303.5</ele>
        <time>2023-10-03T16:57:52Z</time>
      </trkpt>
      <trkpt lat="48.71687" lon="7.16334">
        <ele>302.9</ele>
        <time>2023-10-03T16:57:59Z</time>
      </trkpt>
      <trkpt lat="48.71706" lon="7.1633">
        <ele>302.4</ele>
        <time>2023-10-03T16:58:06Z</time>
      </trkpt>
      <trkpt lat="48.71724" lon="7.16328">
        <ele>301.8</ele>
        <time>2023-10-03T16:58:12Z</time>
      </trkpt>
      <trkpt lat="48.71745" lon="7.16326">
        <ele>301</ele>
        <time>2023-10-03T16:58:19Z</time>
      </trkpt>
      <trkpt lat="48.71763" lon="7.16315">
        <ele>301</ele>
        <time>2023-10-03T16:58:26Z</time>
      </trkpt>
      <trkpt lat="48.71779" lon="7.16299">
        <ele>301.4</ele>
        <time>2023-10-03T16:58:33Z</time>
      </trkpt>
      <trkpt lat="48.71789" lon="7.16279">
        <ele>302.6</ele>
        <time>2023-10-03T16:58:41Z</time>
      </trkpt>
      <trkpt lat="48.71796" lon="7.16251">
        <ele>304.1</ele>
        <time>2023-10-03T16:58:50Z</time>
      </trkpt>
      <trkpt lat="48.71802" lon="7.16225">
        <ele>305.6</ele>
        <time>2023-10-03T16:58:59Z</time>
      </trkpt>
      <trkpt lat="48.71808" lon="7.16197">
        <ele>307.3</ele>
        <time>2023-10-03T16:59:08Z</time>
      </trkpt>
      <trkpt lat="48.71812" lon="7.16168">
        <ele>309.2</ele>
        <time>2023-10-03T16:59:17Z</time>
      </trkpt>
      <trkpt lat="48.71812" lon="7.16141">
        <ele>311.2</ele>
        <time>2023-10-03T16:59:25Z</time>
      </trkpt>
      <trkpt lat="48.71816" lon="7.16113">
        <ele>313.9</ele>
        <time>2023-10-03T16:59:35Z</time>
      </trkpt>
      <trkpt lat="48.71817" lon="7.16085">
        <ele>316.6</ele>
        <time>2023-10-03T16:59:46Z</time>
      </trkpt>
      <trkpt lat="48.71817" lon="7.16079">
        <ele>317.1</ele>
        <time>2023-10-03T16:59:49Z</time>
      </trkpt>
      <trkpt lat="48.71824" lon="7.16052">
        <ele>319.8</ele>
        <time>2023-10-03T17:00:00Z</time>
      </trkpt>
      <trkpt lat="48.71818" lon="7.16023">
        <ele>322</ele>
        <time>2023-10-03T17:00:10Z</time>
      </trkpt>
      <trkpt lat="48.71814" lon="7.16009">
        <ele>323</ele>
        <time>2023-10-03T17:00:14Z</time>
      </trkpt>
      <trkpt lat="48.71797" lon="7.15995">
        <ele>325.3</ele>
        <time>2023-10-03T17:00:21Z</time>
      </trkpt>
      <trkpt lat="48.71779" lon="7.15988">
        <ele>326.8</ele>
        <time>2023-10-03T17:00:30Z</time>
      </trkpt>
      <trkpt lat="48.71759" lon="7.15985">
        <ele>328.5</ele>
        <time>2023-10-03T17:00:41Z</time>
      </trkpt>
      <trkpt lat="48.7174" lon="7.15984">
        <ele>330</ele>
        <time>2023-10-03T17:00:48Z</time>
      </trkpt>
      <trkpt lat="48.7172" lon="7.15984">
        <ele>331.4</ele>
        <time>2023-10-03T17:00:55Z</time>
      </trkpt>
      <trkpt lat="48.71702" lon="7.15988">
        <ele>332.6</ele>
        <time>2023-10-03T17:01:02Z</time>
      </trkpt>
      <trkpt lat="48.71683" lon="7.1599">
        <ele>333.7</ele>
        <time>2023-10-03T17:01:09Z</time>
      </trkpt>
      <trkpt lat="48.71668" lon="7.15972">
        <ele>334.4</ele>
        <time>2023-10-03T17:01:16Z</time>
      </trkpt>
      <trkpt lat="48.71666" lon="7.15943">
        <ele>335</ele>
        <time>2023-10-03T17:01:23Z</time>
      </trkpt>
      <trkpt lat="48.71663" lon="7.15913">
        <ele>335.5</ele>
        <time>2023-10-03T17:01:30Z</time>
      </trkpt>
      <trkpt lat="48.71663" lon="7.15881">
        <ele>335.8</ele>
        <time>2023-10-03T17:01:37Z</time>
      </trkpt>
      <trkpt lat="48.71666" lon="7.15851">
        <ele>336</ele>
        <time>2023-10-03T17:01:44Z</time>
      </trkpt>
      <trkpt lat="48.71669" lon="7.1582">
        <ele>336.3</ele>
        <time>2023-10-03T17:01:51Z</time>
      </trkpt>
      <trkpt lat="48.71669" lon="7.1579">
        <ele>336.4</ele>
        <time>2023-10-03T17:01:58Z</time>
      </trkpt>
      <trkpt lat="48.71665" lon="7.15763">
        <ele>336.6</ele>
        <time>2023-10-03T17:02:04Z</time>
      </trkpt>
      <trkpt lat="48.71663" lon="7.15733">
        <ele>336.9</ele>
        <time>2023-10-03T17:02:12Z</time>
      </trkpt>
      <trkpt lat="48.7166" lon="7.15705">
        <ele>337.3</ele>
        <time>2023-10-03T17:02:19Z</time>
      </trkpt>
      <trkpt lat="48.71664" lon="7.15675">
        <ele>337.7</ele>
        <time>2023-10-03T17:02:27Z</time>
      </trkpt>
      <trkpt lat="48.71668" lon="7.15647">
        <ele>338.1</ele>
        <time>2023-10-03T17:02:34Z</time>
      </trkpt>
      <trkpt lat="48.71675" lon="7.15619">
        <ele>338.4</ele>
        <time>2023-10-03T17:02:41Z</time>
      </trkpt>
      <trkpt lat="48.7168" lon="7.1559">
        <ele>338.7</ele>
        <time>2023-10-03T17:02:48Z</time>
      </trkpt>
      <trkpt lat="48.71688" lon="7.15563">
        <ele>339.2</ele>
        <time>2023-10-03T17:02:55Z</time>
      </trkpt>
      <trkpt lat="48.71698" lon="7.15537">
        <ele>339.8</ele>
        <time>2023-10-03T17:03:02Z</time>
      </trkpt>
      <trkpt lat="48.71709" lon="7.15512">
        <ele>340.4</ele>
        <time>2023-10-03T17:03:09Z</time>
      </trkpt>
      <trkpt lat="48.71719" lon="7.15487">
        <ele>341.1</ele>
        <time>2023-10-03T17:03:16Z</time>
      </trkpt>
      <trkpt lat="48.71732" lon="7.15464">
        <ele>341.9</ele>
        <time>2023-10-03T17:03:23Z</time>
      </trkpt>
      <trkpt lat="48.71742" lon="7.1544">
        <ele>342.8</ele>
        <time>2023-10-03T17:03:30Z</time>
      </trkpt>
      <trkpt lat="48.71751" lon="7.15415">
        <ele>343.7</ele>
        <time>2023-10-03T17:03:37Z</time>
      </trkpt>
      <trkpt lat="48.71763" lon="7.15391">
        <ele>344.4</ele>
        <time>2023-10-03T17:03:44Z</time>
      </trkpt>
      <trkpt lat="48.71773" lon="7.15365">
        <ele>345.1</ele>
        <time>2023-10-03T17:03:51Z</time>
      </trkpt>
      <trkpt lat="48.71783" lon="7.1534">
        <ele>345.6</ele>
        <time>2023-10-03T17:03:58Z</time>
      </trkpt>
      <trkpt lat="48.7179" lon="7.15315">
        <ele>345.9</ele>
        <time>2023-10-03T17:04:05Z</time>
      </trkpt>
      <trkpt lat="48.71788" lon="7.15285">
        <ele>346.3</ele>
        <time>2023-10-03T17:04:12Z</time>
      </trkpt>
      <trkpt lat="48.71777" lon="7.15261">
        <ele>346.5</ele>
        <time>2023-10-03T17:04:19Z</time>
      </trkpt>
      <trkpt lat="48.71764" lon="7.15239">
        <ele>346.8</ele>
        <time>2023-10-03T17:04:26Z</time>
      </trkpt>
      <trkpt lat="48.71756" lon="7.15215">
        <ele>346.8</ele>
        <time>2023-10-03T17:04:33Z</time>
      </trkpt>
      <trkpt lat="48.71747" lon="7.15188">
        <ele>346.9</ele>
        <time>2023-10-03T17:04:40Z</time>
      </trkpt>
      <trkpt lat="48.71747" lon="7.15159">
        <ele>347.2</ele>
        <time>2023-10-03T17:04:49Z</time>
      </trkpt>
      <trkpt lat="48.71747" lon="7.1513">
        <ele>347.4</ele>
        <time>2023-10-03T17:04:57Z</time>
      </trkpt>
      <trkpt lat="48.71746" lon="7.15102">
        <ele>347.5</ele>
        <time>2023-10-03T17:05:04Z</time>
      </trkpt>
      <trkpt lat="48.71743" lon="7.15073">
        <ele>347.7</ele>
        <time>2023-10-03T17:05:12Z</time>
      </trkpt>
      <trkpt lat="48.71737" lon="7.15046">
        <ele>348.1</ele>
        <time>2023-10-03T17:05:18Z</time>
      </trkpt>
      <trkpt lat="48.71733" lon="7.15015">
        <ele>348.2</ele>
        <time>2023-10-03T17:05:25Z</time>
      </trkpt>
      <trkpt lat="48.71733" lon="7.14986">
        <ele>348</ele>
        <time>2023-10-03T17:05:32Z</time>
      </trkpt>
      <trkpt lat="48.71727" lon="7.14959">
        <ele>348</ele>
        <time>2023-10-03T17:05:38Z</time>
      </trkpt>
      <trkpt lat="48.7172" lon="7.1493">
        <ele>348.3</ele>
        <time>2023-10-03T17:05:44Z</time>
      </trkpt>
      <trkpt lat="48.71718" lon="7.14903">
        <ele>348.6</ele>
        <time>2023-10-03T17:05:49Z</time>
      </trkpt>
      <trkpt lat="48.71711" lon="7.14872">
        <ele>348.8</ele>
        <time>2023-10-03T17:05:55Z</time>
      </trkpt>
      <trkpt lat="48.71696" lon="7.1485">
        <ele>348.5</ele>
        <time>2023-10-03T17:06:00Z</time>
      </trkpt>
      <trkpt lat="48.71677" lon="7.14849">
        <ele>348.2</ele>
        <time>2023-10-03T17:06:06Z</time>
      </trkpt>
      <trkpt lat="48.71657" lon="7.14851">
        <ele>348</ele>
        <time>2023-10-03T17:06:13Z</time>
      </trkpt>
      <trkpt lat="48.71638" lon="7.14857">
        <ele>348.1</ele>
        <time>2023-10-03T17:06:20Z</time>
      </trkpt>
      <trkpt lat="48.71617" lon="7.14862">
        <ele>348</ele>
        <time>2023-10-03T17:06:27Z</time>
      </trkpt>
      <trkpt lat="48.71599" lon="7.14868">
        <ele>348.1</ele>
        <time>2023-10-03T17:06:33Z</time>
      </trkpt>
      <trkpt lat="48.71581" lon="7.14875">
        <ele>348</ele>
        <time>2023-10-03T17:06:39Z</time>
      </trkpt>
      <trkpt lat="48.71561" lon="7.14882">
        <ele>348</ele>
        <time>2023-10-03T17:06:46Z</time>
      </trkpt>
      <trkpt lat="48.71542" lon="7.14888">
        <ele>348.1</ele>
        <time>2023-10-03T17:06:53Z</time>
      </trkpt>
      <trkpt lat="48.71522" lon="7.14893">
        <ele>348.2</ele>
        <time>2023-10-03T17:07:00Z</time>
      </trkpt>
      <trkpt lat="48.71505" lon="7.14899">
        <ele>348.4</ele>
        <time>2023-10-03T17:07:07Z</time>
      </trkpt>
      <trkpt lat="48.71486" lon="7.14902">
        <ele>348.5</ele>
        <time>2023-10-03T17:07:14Z</time>
      </trkpt>
      <trkpt lat="48.71466" lon="7.1491">
        <ele>348.3</ele>
        <time>2023-10-03T17:07:22Z</time>
      </trkpt>
      <trkpt lat="48.71446" lon="7.14917">
        <ele>348.2</ele>
        <time>2023-10-03T17:07:29Z</time>
      </trkpt>
      <trkpt lat="48.71429" lon="7.14921">
        <ele>348</ele>
        <time>2023-10-03T17:07:35Z</time>
      </trkpt>
      <trkpt lat="48.71409" lon="7.1493">
        <ele>347.7</ele>
        <time>2023-10-03T17:07:42Z</time>
      </trkpt>
      <trkpt lat="48.71389" lon="7.14934">
        <ele>347.6</ele>
        <time>2023-10-03T17:07:49Z</time>
      </trkpt>
      <trkpt lat="48.7137" lon="7.14937">
        <ele>347.2</ele>
        <time>2023-10-03T17:07:55Z</time>
      </trkpt>
      <trkpt lat="48.71352" lon="7.14946">
        <ele>346.6</ele>
        <time>2023-10-03T17:08:01Z</time>
      </trkpt>
      <trkpt lat="48.71332" lon="7.14955">
        <ele>346.1</ele>
        <time>2023-10-03T17:08:08Z</time>
      </trkpt>
      <trkpt lat="48.71313" lon="7.14961">
        <ele>345.6</ele>
        <time>2023-10-03T17:08:15Z</time>
      </trkpt>
      <trkpt lat="48.71293" lon="7.14966">
        <ele>344.8</ele>
        <time>2023-10-03T17:08:22Z</time>
      </trkpt>
      <trkpt lat="48.71272" lon="7.14972">
        <ele>343.9</ele>
        <time>2023-10-03T17:08:29Z</time>
      </trkpt>
      <trkpt lat="48.71253" lon="7.14977">
        <ele>343.3</ele>
        <time>2023-10-03T17:08:36Z</time>
      </trkpt>
      <trkpt lat="48.71234" lon="7.14982">
        <ele>342.7</ele>
        <time>2023-10-03T17:08:43Z</time>
      </trkpt>
      <trkpt lat="48.71214" lon="7.14988">
        <ele>342.2</ele>
        <time>2023-10-03T17:08:50Z</time>
      </trkpt>
      <trkpt lat="48.71196" lon="7.14993">
        <ele>341.9</ele>
        <time>2023-10-03T17:08:56Z</time>
      </trkpt>
      <trkpt lat="48.71177" lon="7.15">
        <ele>342.1</ele>
        <time>2023-10-03T17:09:03Z</time>
      </trkpt>
      <trkpt lat="48.7116" lon="7.15013">
        <ele>341.8</ele>
        <time>2023-10-03T17:09:10Z</time>
      </trkpt>
      <trkpt lat="48.71141" lon="7.15021">
        <ele>341.6</ele>
        <time>2023-10-03T17:09:18Z</time>
      </trkpt>
      <trkpt lat="48.71121" lon="7.15025">
        <ele>341.4</ele>
        <time>2023-10-03T17:09:25Z</time>
      </trkpt>
      <trkpt lat="48.71101" lon="7.15026">
        <ele>341.3</ele>
        <time>2023-10-03T17:09:32Z</time>
      </trkpt>
      <trkpt lat="48.71097" lon="7.15002">
        <ele>340.7</ele>
        <time>2023-10-03T17:09:42Z</time>
      </trkpt>
      <trkpt lat="48.71094" lon="7.14981">
        <ele>339.8</ele>
        <time>2023-10-03T17:09:49Z</time>
      </trkpt>
      <trkpt lat="48.71074" lon="7.14976">
        <ele>339.4</ele>
        <time>2023-10-03T17:09:57Z</time>
      </trkpt>
      <trkpt lat="48.71055" lon="7.14972">
        <ele>339.3</ele>
        <time>2023-10-03T17:10:04Z</time>
      </trkpt>
      <trkpt lat="48.71036" lon="7.14966">
        <ele>339.3</ele>
        <time>2023-10-03T17:10:13Z</time>
      </trkpt>
      <trkpt lat="48.71019" lon="7.14958">
        <ele>339.5</ele>
        <time>2023-10-03T17:10:22Z</time>
      </trkpt>
      <trkpt lat="48.71013" lon="7.14985">
        <ele>339.6</ele>
        <time>2023-10-03T17:10:28Z</time>
      </trkpt>
      <trkpt lat="48.71007" lon="7.15013">
        <ele>340.1</ele>
        <time>2023-10-03T17:10:34Z</time>
      </trkpt>
      <trkpt lat="48.71" lon="7.15041">
        <ele>340.7</ele>
        <time>2023-10-03T17:10:41Z</time>
      </trkpt>
      <trkpt lat="48.70995" lon="7.1507">
        <ele>341.5</ele>
        <time>2023-10-03T17:10:48Z</time>
      </trkpt>
      <trkpt lat="48.70988" lon="7.151">
        <ele>342.5</ele>
        <time>2023-10-03T17:10:55Z</time>
      </trkpt>
      <trkpt lat="48.70984" lon="7.15128">
        <ele>343.6</ele>
        <time>2023-10-03T17:11:02Z</time>
      </trkpt>
      <trkpt lat="48.7098" lon="7.15158">
        <ele>344.5</ele>
        <time>2023-10-03T17:11:09Z</time>
      </trkpt>
      <trkpt lat="48.70975" lon="7.15185">
        <ele>345.3</ele>
        <time>2023-10-03T17:11:16Z</time>
      </trkpt>
      <trkpt lat="48.70972" lon="7.15214">
        <ele>346.2</ele>
        <time>2023-10-03T17:11:23Z</time>
      </trkpt>
      <trkpt lat="48.7097" lon="7.15242">
        <ele>346.7</ele>
        <time>2023-10-03T17:11:30Z</time>
      </trkpt>
      <trkpt lat="48.70968" lon="7.15271">
        <ele>347.2</ele>
        <time>2023-10-03T17:11:37Z</time>
      </trkpt>
      <trkpt lat="48.70964" lon="7.15301">
        <ele>347.7</ele>
        <time>2023-10-03T17:11:45Z</time>
      </trkpt>
      <trkpt lat="48.70962" lon="7.15329">
        <ele>348.3</ele>
        <time>2023-10-03T17:11:52Z</time>
      </trkpt>
      <trkpt lat="48.7096" lon="7.15356">
        <ele>348.9</ele>
        <time>2023-10-03T17:11:59Z</time>
      </trkpt>
      <trkpt lat="48.70958" lon="7.15384">
        <ele>350</ele>
        <time>2023-10-03T17:12:06Z</time>
      </trkpt>
      <trkpt lat="48.70956" lon="7.15413">
        <ele>350.8</ele>
        <time>2023-10-03T17:12:13Z</time>
      </trkpt>
      <trkpt lat="48.70954" lon="7.15443">
        <ele>350.6</ele>
        <time>2023-10-03T17:12:20Z</time>
      </trkpt>
      <trkpt lat="48.70956" lon="7.15472">
        <ele>349.9</ele>
        <time>2023-10-03T17:12:27Z</time>
      </trkpt>
      <trkpt lat="48.70958" lon="7.15503">
        <ele>349</ele>
        <time>2023-10-03T17:12:34Z</time>
      </trkpt>
      <trkpt lat="48.70959" lon="7.15534">
        <ele>348.1</ele>
        <time>2023-10-03T17:12:41Z</time>
      </trkpt>
      <trkpt lat="48.70959" lon="7.15564">
        <ele>347</ele>
        <time>2023-10-03T17:12:48Z</time>
      </trkpt>
      <trkpt lat="48.70959" lon="7.15594">
        <ele>346</ele>
        <time>2023-10-03T17:12:55Z</time>
      </trkpt>
      <trkpt lat="48.70961" lon="7.15626">
        <ele>344.7</ele>
        <time>2023-10-03T17:13:02Z</time>
      </trkpt>
      <trkpt lat="48.70963" lon="7.15653">
        <ele>343.4</ele>
        <time>2023-10-03T17:13:08Z</time>
      </trkpt>
      <trkpt lat="48.70962" lon="7.15682">
        <ele>342.2</ele>
        <time>2023-10-03T17:13:14Z</time>
      </trkpt>
      <trkpt lat="48.70954" lon="7.15693">
        <ele>342.2</ele>
        <time>2023-10-03T17:13:18Z</time>
      </trkpt>
      <trkpt lat="48.70936" lon="7.15683">
        <ele>343.3</ele>
        <time>2023-10-03T17:13:25Z</time>
      </trkpt>
      <trkpt lat="48.7092" lon="7.15669">
        <ele>344.4</ele>
        <time>2023-10-03T17:13:32Z</time>
      </trkpt>
      <trkpt lat="48.70902" lon="7.15654">
        <ele>345.6</ele>
        <time>2023-10-03T17:13:40Z</time>
      </trkpt>
      <trkpt lat="48.70885" lon="7.15641">
        <ele>346.5</ele>
        <time>2023-10-03T17:13:48Z</time>
      </trkpt>
      <trkpt lat="48.70866" lon="7.15627">
        <ele>347.3</ele>
        <time>2023-10-03T17:13:56Z</time>
      </trkpt>
      <trkpt lat="48.70849" lon="7.15613">
        <ele>347.9</ele>
        <time>2023-10-03T17:14:03Z</time>
      </trkpt>
      <trkpt lat="48.70832" lon="7.15597">
        <ele>348.6</ele>
        <time>2023-10-03T17:14:10Z</time>
      </trkpt>
      <trkpt lat="48.70817" lon="7.15582">
        <ele>349.1</ele>
        <time>2023-10-03T17:14:16Z</time>
      </trkpt>
      <trkpt lat="48.708" lon="7.15566">
        <ele>349.8</ele>
        <time>2023-10-03T17:14:23Z</time>
      </trkpt>
      <trkpt lat="48.70783" lon="7.1555">
        <ele>350.4</ele>
        <time>2023-10-03T17:14:31Z</time>
      </trkpt>
      <trkpt lat="48.70767" lon="7.15531">
        <ele>351</ele>
        <time>2023-10-03T17:14:39Z</time>
      </trkpt>
      <trkpt lat="48.70752" lon="7.15513">
        <ele>351.7</ele>
        <time>2023-10-03T17:14:46Z</time>
      </trkpt>
      <trkpt lat="48.70737" lon="7.15496">
        <ele>352.4</ele>
        <time>2023-10-03T17:14:53Z</time>
      </trkpt>
      <trkpt lat="48.70721" lon="7.1548">
        <ele>353</ele>
        <time>2023-10-03T17:15:00Z</time>
      </trkpt>
      <trkpt lat="48.70705" lon="7.15465">
        <ele>353.8</ele>
        <time>2023-10-03T17:15:07Z</time>
      </trkpt>
      <trkpt lat="48.70688" lon="7.15454">
        <ele>354.7</ele>
        <time>2023-10-03T17:15:14Z</time>
      </trkpt>
      <trkpt lat="48.70671" lon="7.15445">
        <ele>355.5</ele>
        <time>2023-10-03T17:15:21Z</time>
      </trkpt>
      <trkpt lat="48.70653" lon="7.15436">
        <ele>356.1</ele>
        <time>2023-10-03T17:15:28Z</time>
      </trkpt>
      <trkpt lat="48.70633" lon="7.15428">
        <ele>356.5</ele>
        <time>2023-10-03T17:15:35Z</time>
      </trkpt>
      <trkpt lat="48.70615" lon="7.15418">
        <ele>356.6</ele>
        <time>2023-10-03T17:15:42Z</time>
      </trkpt>
      <trkpt lat="48.70596" lon="7.15411">
        <ele>356.9</ele>
        <time>2023-10-03T17:15:49Z</time>
      </trkpt>
      <trkpt lat="48.70578" lon="7.154">
        <ele>357.2</ele>
        <time>2023-10-03T17:15:56Z</time>
      </trkpt>
      <trkpt lat="48.70559" lon="7.15391">
        <ele>357.4</ele>
        <time>2023-10-03T17:16:03Z</time>
      </trkpt>
      <trkpt lat="48.7054" lon="7.15382">
        <ele>357.4</ele>
        <time>2023-10-03T17:16:10Z</time>
      </trkpt>
      <trkpt lat="48.70522" lon="7.15369">
        <ele>357.7</ele>
        <time>2023-10-03T17:16:17Z</time>
      </trkpt>
      <trkpt lat="48.70504" lon="7.15354">
        <ele>358</ele>
        <time>2023-10-03T17:16:24Z</time>
      </trkpt>
      <trkpt lat="48.70487" lon="7.15337">
        <ele>358.3</ele>
        <time>2023-10-03T17:16:31Z</time>
      </trkpt>
      <trkpt lat="48.70469" lon="7.15321">
        <ele>358.7</ele>
        <time>2023-10-03T17:16:38Z</time>
      </trkpt>
      <trkpt lat="48.70451" lon="7.15307">
        <ele>359</ele>
        <time>2023-10-03T17:16:45Z</time>
      </trkpt>
      <trkpt lat="48.70433" lon="7.15296">
        <ele>359.1</ele>
        <time>2023-10-03T17:16:52Z</time>
      </trkpt>
      <trkpt lat="48.70415" lon="7.15287">
        <ele>359.2</ele>
        <time>2023-10-03T17:16:59Z</time>
      </trkpt>
      <trkpt lat="48.70396" lon="7.15281">
        <ele>359.3</ele>
        <time>2023-10-03T17:17:06Z</time>
      </trkpt>
      <trkpt lat="48.70377" lon="7.15272">
        <ele>359.3</ele>
        <time>2023-10-03T17:17:13Z</time>
      </trkpt>
      <trkpt lat="48.70359" lon="7.15265">
        <ele>359.2</ele>
        <time>2023-10-03T17:17:19Z</time>
      </trkpt>
      <trkpt lat="48.70342" lon="7.15252">
        <ele>359.2</ele>
        <time>2023-10-03T17:17:26Z</time>
      </trkpt>
      <trkpt lat="48.70342" lon="7.15245">
        <ele>359.3</ele>
        <time>2023-10-03T17:17:27Z</time>
      </trkpt>
      <trkpt lat="48.70356" lon="7.15225">
        <ele>359.5</ele>
        <time>2023-10-03T17:17:35Z</time>
      </trkpt>
      <trkpt lat="48.70359" lon="7.1522">
        <ele>359.5</ele>
        <time>2023-10-03T17:17:37Z</time>
      </trkpt>
      <trkpt lat="48.70358" lon="7.15216">
        <ele>359.5</ele>
        <time>2023-10-03T17:17:39Z</time>
      </trkpt>
      <trkpt lat="48.7034" lon="7.15231">
        <ele>359.5</ele>
        <time>2023-10-03T17:17:48Z</time>
      </trkpt>
      <trkpt lat="48.70335" lon="7.15232">
        <ele>359.4</ele>
        <time>2023-10-03T17:17:49Z</time>
      </trkpt>
      <trkpt lat="48.70319" lon="7.15216">
        <ele>359.2</ele>
        <time>2023-10-03T17:17:58Z</time>
      </trkpt>
      <trkpt lat="48.70303" lon="7.15202">
        <ele>359.3</ele>
        <time>2023-10-03T17:18:05Z</time>
      </trkpt>
      <trkpt lat="48.70285" lon="7.1519">
        <ele>358.9</ele>
        <time>2023-10-03T17:18:13Z</time>
      </trkpt>
      <trkpt lat="48.70272" lon="7.15167">
        <ele>358.5</ele>
        <time>2023-10-03T17:18:21Z</time>
      </trkpt>
      <trkpt lat="48.70259" lon="7.15145">
        <ele>358.1</ele>
        <time>2023-10-03T17:18:27Z</time>
      </trkpt>
      <trkpt lat="48.70251" lon="7.15117">
        <ele>358</ele>
        <time>2023-10-03T17:18:35Z</time>
      </trkpt>
      <trkpt lat="48.70246" lon="7.15088">
        <ele>357.7</ele>
        <time>2023-10-03T17:18:43Z</time>
      </trkpt>
      <trkpt lat="48.70233" lon="7.15063">
        <ele>357.3</ele>
        <time>2023-10-03T17:18:49Z</time>
      </trkpt>
      <trkpt lat="48.70226" lon="7.15037">
        <ele>356.9</ele>
        <time>2023-10-03T17:18:55Z</time>
      </trkpt>
      <trkpt lat="48.70222" lon="7.15009">
        <ele>356.3</ele>
        <time>2023-10-03T17:19:02Z</time>
      </trkpt>
      <trkpt lat="48.70213" lon="7.14983">
        <ele>355.1</ele>
        <time>2023-10-03T17:19:08Z</time>
      </trkpt>
      <trkpt lat="48.70203" lon="7.14955">
        <ele>353.5</ele>
        <time>2023-10-03T17:19:14Z</time>
      </trkpt>
      <trkpt lat="48.70194" lon="7.14925">
        <ele>351.9</ele>
        <time>2023-10-03T17:19:20Z</time>
      </trkpt>
      <trkpt lat="48.70187" lon="7.14896">
        <ele>350.5</ele>
        <time>2023-10-03T17:19:26Z</time>
      </trkpt>
      <trkpt lat="48.70178" lon="7.14868">
        <ele>349.7</ele>
        <time>2023-10-03T17:19:32Z</time>
      </trkpt>
      <trkpt lat="48.70171" lon="7.14842">
        <ele>349</ele>
        <time>2023-10-03T17:19:38Z</time>
      </trkpt>
      <trkpt lat="48.70165" lon="7.14814">
        <ele>347.9</ele>
        <time>2023-10-03T17:19:44Z</time>
      </trkpt>
      <trkpt lat="48.70158" lon="7.14787">
        <ele>346.9</ele>
        <time>2023-10-03T17:19:51Z</time>
      </trkpt>
      <trkpt lat="48.70156" lon="7.14759">
        <ele>346</ele>
        <time>2023-10-03T17:19:58Z</time>
      </trkpt>
      <trkpt lat="48.70151" lon="7.14731">
        <ele>345.3</ele>
        <time>2023-10-03T17:20:05Z</time>
      </trkpt>
      <trkpt lat="48.7014" lon="7.14705">
        <ele>344.8</ele>
        <time>2023-10-03T17:20:11Z</time>
      </trkpt>
      <trkpt lat="48.7013" lon="7.14678">
        <ele>344</ele>
        <time>2023-10-03T17:20:17Z</time>
      </trkpt>
      <trkpt lat="48.70124" lon="7.14672">
        <ele>344.1</ele>
        <time>2023-10-03T17:20:20Z</time>
      </trkpt>
      <trkpt lat="48.70109" lon="7.14693">
        <ele>344.3</ele>
        <time>2023-10-03T17:20:27Z</time>
      </trkpt>
      <trkpt lat="48.70097" lon="7.14713">
        <ele>344.6</ele>
        <time>2023-10-03T17:20:33Z</time>
      </trkpt>
      <trkpt lat="48.70083" lon="7.14731">
        <ele>345.4</ele>
        <time>2023-10-03T17:20:40Z</time>
      </trkpt>
      <trkpt lat="48.70067" lon="7.14747">
        <ele>346.9</ele>
        <time>2023-10-03T17:20:48Z</time>
      </trkpt>
      <trkpt lat="48.70052" lon="7.14766">
        <ele>348.2</ele>
        <time>2023-10-03T17:20:57Z</time>
      </trkpt>
      <trkpt lat="48.7004" lon="7.14788">
        <ele>349</ele>
        <time>2023-10-03T17:21:04Z</time>
      </trkpt>
      <trkpt lat="48.70026" lon="7.14809">
        <ele>350.4</ele>
        <time>2023-10-03T17:21:12Z</time>
      </trkpt>
      <trkpt lat="48.70011" lon="7.14827">
        <ele>351.6</ele>
        <time>2023-10-03T17:21:20Z</time>
      </trkpt>
      <trkpt lat="48.69997" lon="7.14846">
        <ele>352.9</ele>
        <time>2023-10-03T17:21:28Z</time>
      </trkpt>
      <trkpt lat="48.69985" lon="7.14862">
        <ele>353.4</ele>
        <time>2023-10-03T17:21:36Z</time>
      </trkpt>
      <trkpt lat="48.6998" lon="7.14859">
        <ele>353.4</ele>
        <time>2023-10-03T17:21:38Z</time>
      </trkpt>
      <trkpt lat="48.69965" lon="7.1484">
        <ele>353.3</ele>
        <time>2023-10-03T17:21:44Z</time>
      </trkpt>
      <trkpt lat="48.6995" lon="7.14818">
        <ele>352.8</ele>
        <time>2023-10-03T17:21:50Z</time>
      </trkpt>
      <trkpt lat="48.69934" lon="7.14799">
        <ele>352.8</ele>
        <time>2023-10-03T17:21:56Z</time>
      </trkpt>
      <trkpt lat="48.69916" lon="7.14802">
        <ele>353.7</ele>
        <time>2023-10-03T17:22:04Z</time>
      </trkpt>
      <trkpt lat="48.69902" lon="7.1482">
        <ele>354.9</ele>
        <time>2023-10-03T17:22:11Z</time>
      </trkpt>
      <trkpt lat="48.69887" lon="7.14838">
        <ele>356.1</ele>
        <time>2023-10-03T17:22:19Z</time>
      </trkpt>
      <trkpt lat="48.69873" lon="7.14856">
        <ele>357.3</ele>
        <time>2023-10-03T17:22:26Z</time>
      </trkpt>
      <trkpt lat="48.69858" lon="7.14878">
        <ele>358.5</ele>
        <time>2023-10-03T17:22:33Z</time>
      </trkpt>
      <trkpt lat="48.69846" lon="7.14898">
        <ele>359.4</ele>
        <time>2023-10-03T17:22:40Z</time>
      </trkpt>
      <trkpt lat="48.69832" lon="7.14918">
        <ele>360.1</ele>
        <time>2023-10-03T17:22:49Z</time>
      </trkpt>
      <trkpt lat="48.69817" lon="7.14939">
        <ele>360.9</ele>
        <time>2023-10-03T17:22:57Z</time>
      </trkpt>
      <trkpt lat="48.69804" lon="7.14959">
        <ele>361.6</ele>
        <time>2023-10-03T17:23:03Z</time>
      </trkpt>
      <trkpt lat="48.69792" lon="7.14981">
        <ele>362.1</ele>
        <time>2023-10-03T17:23:10Z</time>
      </trkpt>
      <trkpt lat="48.69779" lon="7.15005">
        <ele>362.2</ele>
        <time>2023-10-03T17:23:18Z</time>
      </trkpt>
      <trkpt lat="48.69766" lon="7.15025">
        <ele>362.5</ele>
        <time>2023-10-03T17:23:25Z</time>
      </trkpt>
      <trkpt lat="48.69751" lon="7.15045">
        <ele>362.7</ele>
        <time>2023-10-03T17:23:32Z</time>
      </trkpt>
      <trkpt lat="48.69736" lon="7.15066">
        <ele>362.5</ele>
        <time>2023-10-03T17:23:39Z</time>
      </trkpt>
      <trkpt lat="48.69721" lon="7.15084">
        <ele>362.3</ele>
        <time>2023-10-03T17:23:45Z</time>
      </trkpt>
      <trkpt lat="48.69706" lon="7.15103">
        <ele>362.1</ele>
        <time>2023-10-03T17:23:51Z</time>
      </trkpt>
      <trkpt lat="48.69691" lon="7.15122">
        <ele>361.9</ele>
        <time>2023-10-03T17:23:57Z</time>
      </trkpt>
      <trkpt lat="48.69677" lon="7.15141">
        <ele>361.7</ele>
        <time>2023-10-03T17:24:03Z</time>
      </trkpt>
      <trkpt lat="48.69663" lon="7.1516">
        <ele>361.8</ele>
        <time>2023-10-03T17:24:09Z</time>
      </trkpt>
      <trkpt lat="48.69649" lon="7.1518">
        <ele>361.8</ele>
        <time>2023-10-03T17:24:15Z</time>
      </trkpt>
      <trkpt lat="48.69635" lon="7.152">
        <ele>361.7</ele>
        <time>2023-10-03T17:24:21Z</time>
      </trkpt>
      <trkpt lat="48.69621" lon="7.1522">
        <ele>361.5</ele>
        <time>2023-10-03T17:24:27Z</time>
      </trkpt>
      <trkpt lat="48.69606" lon="7.15241">
        <ele>361.3</ele>
        <time>2023-10-03T17:24:33Z</time>
      </trkpt>
      <trkpt lat="48.69593" lon="7.15261">
        <ele>361</ele>
        <time>2023-10-03T17:24:39Z</time>
      </trkpt>
      <trkpt lat="48.69578" lon="7.15281">
        <ele>361</ele>
        <time>2023-10-03T17:24:45Z</time>
      </trkpt>
      <trkpt lat="48.69563" lon="7.15301">
        <ele>361.3</ele>
        <time>2023-10-03T17:24:52Z</time>
      </trkpt>
      <trkpt lat="48.69548" lon="7.15322">
        <ele>361.8</ele>
        <time>2023-10-03T17:24:59Z</time>
      </trkpt>
      <trkpt lat="48.69533" lon="7.15342">
        <ele>362.3</ele>
        <time>2023-10-03T17:25:06Z</time>
      </trkpt>
      <trkpt lat="48.69518" lon="7.15363">
        <ele>362.8</ele>
        <time>2023-10-03T17:25:13Z</time>
      </trkpt>
      <trkpt lat="48.69502" lon="7.15383">
        <ele>363.7</ele>
        <time>2023-10-03T17:25:20Z</time>
      </trkpt>
      <trkpt lat="48.69487" lon="7.15404">
        <ele>364.1</ele>
        <time>2023-10-03T17:25:27Z</time>
      </trkpt>
      <trkpt lat="48.69472" lon="7.15425">
        <ele>364.4</ele>
        <time>2023-10-03T17:25:34Z</time>
      </trkpt>
      <trkpt lat="48.69458" lon="7.15445">
        <ele>364.8</ele>
        <time>2023-10-03T17:25:41Z</time>
      </trkpt>
      <trkpt lat="48.69442" lon="7.15463">
        <ele>365.5</ele>
        <time>2023-10-03T17:25:48Z</time>
      </trkpt>
      <trkpt lat="48.69425" lon="7.1548">
        <ele>366.1</ele>
        <time>2023-10-03T17:25:55Z</time>
      </trkpt>
      <trkpt lat="48.6941" lon="7.15499">
        <ele>366.6</ele>
        <time>2023-10-03T17:26:02Z</time>
      </trkpt>
      <trkpt lat="48.69396" lon="7.15517">
        <ele>367.1</ele>
        <time>2023-10-03T17:26:08Z</time>
      </trkpt>
      <trkpt lat="48.69382" lon="7.15538">
        <ele>367.8</ele>
        <time>2023-10-03T17:26:15Z</time>
      </trkpt>
      <trkpt lat="48.69366" lon="7.15558">
        <ele>368.2</ele>
        <time>2023-10-03T17:26:22Z</time>
      </trkpt>
      <trkpt lat="48.69352" lon="7.15579">
        <ele>368.5</ele>
        <time>2023-10-03T17:26:29Z</time>
      </trkpt>
      <trkpt lat="48.69337" lon="7.156">
        <ele>368.4</ele>
        <time>2023-10-03T17:26:36Z</time>
      </trkpt>
      <trkpt lat="48.69322" lon="7.15619">
        <ele>368.5</ele>
        <time>2023-10-03T17:26:43Z</time>
      </trkpt>
      <trkpt lat="48.69308" lon="7.1564">
        <ele>368.4</ele>
        <time>2023-10-03T17:26:50Z</time>
      </trkpt>
      <trkpt lat="48.69295" lon="7.15659">
        <ele>367.7</ele>
        <time>2023-10-03T17:26:57Z</time>
      </trkpt>
      <trkpt lat="48.69281" lon="7.15681">
        <ele>366.7</ele>
        <time>2023-10-03T17:27:04Z</time>
      </trkpt>
      <trkpt lat="48.69279" lon="7.15709">
        <ele>366.1</ele>
        <time>2023-10-03T17:27:10Z</time>
      </trkpt>
      <trkpt lat="48.69282" lon="7.1574">
        <ele>365.4</ele>
        <time>2023-10-03T17:27:17Z</time>
      </trkpt>
      <trkpt lat="48.69286" lon="7.15767">
        <ele>364.7</ele>
        <time>2023-10-03T17:27:23Z</time>
      </trkpt>
      <trkpt lat="48.69292" lon="7.15793">
        <ele>364.1</ele>
        <time>2023-10-03T17:27:29Z</time>
      </trkpt>
      <trkpt lat="48.693" lon="7.15821">
        <ele>363.6</ele>
        <time>2023-10-03T17:27:35Z</time>
      </trkpt>
      <trkpt lat="48.69309" lon="7.15848">
        <ele>363.2</ele>
        <time>2023-10-03T17:27:41Z</time>
      </trkpt>
      <trkpt lat="48.69316" lon="7.15872">
        <ele>363.1</ele>
        <time>2023-10-03T17:27:47Z</time>
      </trkpt>
      <trkpt lat="48.69325" lon="7.15897">
        <ele>363.1</ele>
        <time>2023-10-03T17:27:53Z</time>
      </trkpt>
      <trkpt lat="48.69333" lon="7.15927">
        <ele>363.1</ele>
        <time>2023-10-03T17:28:00Z</time>
      </trkpt>
      <trkpt lat="48.69341" lon="7.15953">
        <ele>363.3</ele>
        <time>2023-10-03T17:28:06Z</time>
      </trkpt>
      <trkpt lat="48.6935" lon="7.15977">
        <ele>363.4</ele>
        <time>2023-10-03T17:28:12Z</time>
      </trkpt>
      <trkpt lat="48.69359" lon="7.16001">
        <ele>363.8</ele>
        <time>2023-10-03T17:28:18Z</time>
      </trkpt>
      <trkpt lat="48.69367" lon="7.16027">
        <ele>364.3</ele>
        <time>2023-10-03T17:28:26Z</time>
      </trkpt>
      <trkpt lat="48.69374" lon="7.16055">
        <ele>364.7</ele>
        <time>2023-10-03T17:28:34Z</time>
      </trkpt>
      <trkpt lat="48.69383" lon="7.16081">
        <ele>365.1</ele>
        <time>2023-10-03T17:28:42Z</time>
      </trkpt>
      <trkpt lat="48.69391" lon="7.16111">
        <ele>365.7</ele>
        <time>2023-10-03T17:28:48Z</time>
      </trkpt>
      <trkpt lat="48.69395" lon="7.16138">
        <ele>366.2</ele>
        <time>2023-10-03T17:28:55Z</time>
      </trkpt>
      <trkpt lat="48.69393" lon="7.16169">
        <ele>365.8</ele>
        <time>2023-10-03T17:29:03Z</time>
      </trkpt>
      <trkpt lat="48.69393" lon="7.16199">
        <ele>364.5</ele>
        <time>2023-10-03T17:29:10Z</time>
      </trkpt>
      <trkpt lat="48.6939" lon="7.1623">
        <ele>361.5</ele>
        <time>2023-10-03T17:29:17Z</time>
      </trkpt>
      <trkpt lat="48.69388" lon="7.16258">
        <ele>358.9</ele>
        <time>2023-10-03T17:29:24Z</time>
      </trkpt>
      <trkpt lat="48.69386" lon="7.16288">
        <ele>357.7</ele>
        <time>2023-10-03T17:29:30Z</time>
      </trkpt>
      <trkpt lat="48.69387" lon="7.16318">
        <ele>356.1</ele>
        <time>2023-10-03T17:29:38Z</time>
      </trkpt>
      <trkpt lat="48.69387" lon="7.16347">
        <ele>354.8</ele>
        <time>2023-10-03T17:29:46Z</time>
      </trkpt>
      <trkpt lat="48.69386" lon="7.16378">
        <ele>354.2</ele>
        <time>2023-10-03T17:29:53Z</time>
      </trkpt>
      <trkpt lat="48.69382" lon="7.16409">
        <ele>352.7</ele>
        <time>2023-10-03T17:29:58Z</time>
      </trkpt>
      <trkpt lat="48.69383" lon="7.16437">
        <ele>353.7</ele>
        <time>2023-10-03T17:30:05Z</time>
      </trkpt>
      <trkpt lat="48.6938" lon="7.16464">
        <ele>352.8</ele>
        <time>2023-10-03T17:30:14Z</time>
      </trkpt>
      <trkpt lat="48.69374" lon="7.16492">
        <ele>352.2</ele>
        <time>2023-10-03T17:30:21Z</time>
      </trkpt>
      <trkpt lat="48.69364" lon="7.16518">
        <ele>350.2</ele>
        <time>2023-10-03T17:30:29Z</time>
      </trkpt>
      <trkpt lat="48.69357" lon="7.16546">
        <ele>348.8</ele>
        <time>2023-10-03T17:30:38Z</time>
      </trkpt>
      <trkpt lat="48.69348" lon="7.16571">
        <ele>346.7</ele>
        <time>2023-10-03T17:30:45Z</time>
      </trkpt>
      <trkpt lat="48.69337" lon="7.16596">
        <ele>343.2</ele>
        <time>2023-10-03T17:30:53Z</time>
      </trkpt>
      <trkpt lat="48.69331" lon="7.16623">
        <ele>342.8</ele>
        <time>2023-10-03T17:31:00Z</time>
      </trkpt>
      <trkpt lat="48.69331" lon="7.16653">
        <ele>343.2</ele>
        <time>2023-10-03T17:31:05Z</time>
      </trkpt>
      <trkpt lat="48.69325" lon="7.1668">
        <ele>342.2</ele>
        <time>2023-10-03T17:31:12Z</time>
      </trkpt>
      <trkpt lat="48.69322" lon="7.16708">
        <ele>343.2</ele>
        <time>2023-10-03T17:31:19Z</time>
      </trkpt>
      <trkpt lat="48.69318" lon="7.16735">
        <ele>344.2</ele>
        <time>2023-10-03T17:31:26Z</time>
      </trkpt>
      <trkpt lat="48.69322" lon="7.16762">
        <ele>345.8</ele>
        <time>2023-10-03T17:31:36Z</time>
      </trkpt>
      <trkpt lat="48.69327" lon="7.16791">
        <ele>346.9</ele>
        <time>2023-10-03T17:31:47Z</time>
      </trkpt>
      <trkpt lat="48.69336" lon="7.16814">
        <ele>349.1</ele>
        <time>2023-10-03T17:31:57Z</time>
      </trkpt>
      <trkpt lat="48.6935" lon="7.16833">
        <ele>352.9</ele>
        <time>2023-10-03T17:32:05Z</time>
      </trkpt>
      <trkpt lat="48.6936" lon="7.16855">
        <ele>355.9</ele>
        <time>2023-10-03T17:32:14Z</time>
      </trkpt>
      <trkpt lat="48.69367" lon="7.16882">
        <ele>356.9</ele>
        <time>2023-10-03T17:32:24Z</time>
      </trkpt>
      <trkpt lat="48.6938" lon="7.16904">
        <ele>359.3</ele>
        <time>2023-10-03T17:32:34Z</time>
      </trkpt>
      <trkpt lat="48.69396" lon="7.16925">
        <ele>362.4</ele>
        <time>2023-10-03T17:32:44Z</time>
      </trkpt>
      <trkpt lat="48.69407" lon="7.16947">
        <ele>363.9</ele>
        <time>2023-10-03T17:32:54Z</time>
      </trkpt>
      <trkpt lat="48.69419" lon="7.16966">
        <ele>366.1</ele>
        <time>2023-10-03T17:33:02Z</time>
      </trkpt>
      <trkpt lat="48.69433" lon="7.16987">
        <ele>367.4</ele>
        <time>2023-10-03T17:33:10Z</time>
      </trkpt>
      <trkpt lat="48.69449" lon="7.17001">
        <ele>370</ele>
        <time>2023-10-03T17:33:19Z</time>
      </trkpt>
      <trkpt lat="48.69466" lon="7.16992">
        <ele>372.5</ele>
        <time>2023-10-03T17:33:31Z</time>
      </trkpt>
      <trkpt lat="48.69466" lon="7.16963">
        <ele>372.9</ele>
        <time>2023-10-03T17:33:44Z</time>
      </trkpt>
      <trkpt lat="48.69464" lon="7.16933">
        <ele>372.8</ele>
        <time>2023-10-03T17:33:54Z</time>
      </trkpt>
      <trkpt lat="48.69465" lon="7.16904">
        <ele>372.9</ele>
        <time>2023-10-03T17:34:02Z</time>
      </trkpt>
      <trkpt lat="48.69474" lon="7.16877">
        <ele>374.8</ele>
        <time>2023-10-03T17:34:12Z</time>
      </trkpt>
      <trkpt lat="48.69484" lon="7.16851">
        <ele>376.3</ele>
        <time>2023-10-03T17:34:20Z</time>
      </trkpt>
      <trkpt lat="48.69485" lon="7.16838">
        <ele>376.6</ele>
        <time>2023-10-03T17:34:24Z</time>
      </trkpt>
      <trkpt lat="48.69491" lon="7.16812">
        <ele>377.6</ele>
        <time>2023-10-03T17:34:31Z</time>
      </trkpt>
      <trkpt lat="48.69496" lon="7.16803">
        <ele>379.1</ele>
        <time>2023-10-03T17:34:35Z</time>
      </trkpt>
      <trkpt lat="48.69513" lon="7.16791">
        <ele>383.1</ele>
        <time>2023-10-03T17:34:45Z</time>
      </trkpt>
      <trkpt lat="48.69531" lon="7.16777">
        <ele>386.7</ele>
        <time>2023-10-03T17:34:56Z</time>
      </trkpt>
      <trkpt lat="48.69549" lon="7.16784">
        <ele>388.4</ele>
        <time>2023-10-03T17:35:06Z</time>
      </trkpt>
      <trkpt lat="48.69565" lon="7.168">
        <ele>388.8</ele>
        <time>2023-10-03T17:35:16Z</time>
      </trkpt>
      <trkpt lat="48.6958" lon="7.16818">
        <ele>388</ele>
        <time>2023-10-03T17:35:24Z</time>
      </trkpt>
      <trkpt lat="48.69594" lon="7.16836">
        <ele>387.3</ele>
        <time>2023-10-03T17:35:32Z</time>
      </trkpt>
      <trkpt lat="48.69609" lon="7.16852">
        <ele>386.7</ele>
        <time>2023-10-03T17:35:40Z</time>
      </trkpt>
      <trkpt lat="48.69626" lon="7.16866">
        <ele>386.8</ele>
        <time>2023-10-03T17:35:48Z</time>
      </trkpt>
      <trkpt lat="48.69642" lon="7.1688">
        <ele>386.9</ele>
        <time>2023-10-03T17:35:55Z</time>
      </trkpt>
      <trkpt lat="48.69661" lon="7.1689">
        <ele>387.2</ele>
        <time>2023-10-03T17:36:02Z</time>
      </trkpt>
      <trkpt lat="48.69681" lon="7.16899">
        <ele>387.5</ele>
        <time>2023-10-03T17:36:09Z</time>
      </trkpt>
      <trkpt lat="48.697" lon="7.16908">
        <ele>387.7</ele>
        <time>2023-10-03T17:36:15Z</time>
      </trkpt>
      <trkpt lat="48.69715" lon="7.16928">
        <ele>388.1</ele>
        <time>2023-10-03T17:36:21Z</time>
      </trkpt>
      <trkpt lat="48.69725" lon="7.16951">
        <ele>388.8</ele>
        <time>2023-10-03T17:36:28Z</time>
      </trkpt>
      <trkpt lat="48.69733" lon="7.16979">
        <ele>389.8</ele>
        <time>2023-10-03T17:36:36Z</time>
      </trkpt>
      <trkpt lat="48.69742" lon="7.17004">
        <ele>390.4</ele>
        <time>2023-10-03T17:36:43Z</time>
      </trkpt>
      <trkpt lat="48.6975" lon="7.17028">
        <ele>390.9</ele>
        <time>2023-10-03T17:36:49Z</time>
      </trkpt>
      <trkpt lat="48.69759" lon="7.17053">
        <ele>391.5</ele>
        <time>2023-10-03T17:36:55Z</time>
      </trkpt>
      <trkpt lat="48.69768" lon="7.1708">
        <ele>392.3</ele>
        <time>2023-10-03T17:37:01Z</time>
      </trkpt>
      <trkpt lat="48.69775" lon="7.17107">
        <ele>392.9</ele>
        <time>2023-10-03T17:37:07Z</time>
      </trkpt>
      <trkpt lat="48.69779" lon="7.17134">
        <ele>393.5</ele>
        <time>2023-10-03T17:37:13Z</time>
      </trkpt>
      <trkpt lat="48.69784" lon="7.17162">
        <ele>394.3</ele>
        <time>2023-10-03T17:37:20Z</time>
      </trkpt>
      <trkpt lat="48.69787" lon="7.17193">
        <ele>395.1</ele>
        <time>2023-10-03T17:37:28Z</time>
      </trkpt>
      <trkpt lat="48.69793" lon="7.17221">
        <ele>395.8</ele>
        <time>2023-10-03T17:37:35Z</time>
      </trkpt>
      <trkpt lat="48.69798" lon="7.1725">
        <ele>396.6</ele>
        <time>2023-10-03T17:37:42Z</time>
      </trkpt>
      <trkpt lat="48.69808" lon="7.17275">
        <ele>397.2</ele>
        <time>2023-10-03T17:37:48Z</time>
      </trkpt>
      <trkpt lat="48.69816" lon="7.17302">
        <ele>397.6</ele>
        <time>2023-10-03T17:37:55Z</time>
      </trkpt>
      <trkpt lat="48.69828" lon="7.17323">
        <ele>397.8</ele>
        <time>2023-10-03T17:38:01Z</time>
      </trkpt>
      <trkpt lat="48.69838" lon="7.17347">
        <ele>398</ele>
        <time>2023-10-03T17:38:08Z</time>
      </trkpt>
      <trkpt lat="48.69848" lon="7.17374">
        <ele>398</ele>
        <time>2023-10-03T17:38:16Z</time>
      </trkpt>
      <trkpt lat="48.69862" lon="7.17391">
        <ele>398</ele>
        <time>2023-10-03T17:38:23Z</time>
      </trkpt>
      <trkpt lat="48.69877" lon="7.17374">
        <ele>396.9</ele>
        <time>2023-10-03T17:38:30Z</time>
      </trkpt>
      <trkpt lat="48.69889" lon="7.17354">
        <ele>395.8</ele>
        <time>2023-10-03T17:38:37Z</time>
      </trkpt>
      <trkpt lat="48.69903" lon="7.17331">
        <ele>394.5</ele>
        <time>2023-10-03T17:38:44Z</time>
      </trkpt>
      <trkpt lat="48.69917" lon="7.17309">
        <ele>393.5</ele>
        <time>2023-10-03T17:38:51Z</time>
      </trkpt>
      <trkpt lat="48.69931" lon="7.17291">
        <ele>392.6</ele>
        <time>2023-10-03T17:38:58Z</time>
      </trkpt>
      <trkpt lat="48.69945" lon="7.17273">
        <ele>391.5</ele>
        <time>2023-10-03T17:39:05Z</time>
      </trkpt>
      <trkpt lat="48.6996" lon="7.17252">
        <ele>390.4</ele>
        <time>2023-10-03T17:39:12Z</time>
      </trkpt>
      <trkpt lat="48.69974" lon="7.17231">
        <ele>389</ele>
        <time>2023-10-03T17:39:19Z</time>
      </trkpt>
      <trkpt lat="48.69988" lon="7.17213">
        <ele>387.5</ele>
        <time>2023-10-03T17:39:25Z</time>
      </trkpt>
      <trkpt lat="48.70005" lon="7.17194">
        <ele>385.7</ele>
        <time>2023-10-03T17:39:31Z</time>
      </trkpt>
      <trkpt lat="48.7002" lon="7.17177">
        <ele>384</ele>
        <time>2023-10-03T17:39:36Z</time>
      </trkpt>
      <trkpt lat="48.70038" lon="7.17159">
        <ele>382.1</ele>
        <time>2023-10-03T17:39:42Z</time>
      </trkpt>
      <trkpt lat="48.70054" lon="7.17144">
        <ele>380.4</ele>
        <time>2023-10-03T17:39:47Z</time>
      </trkpt>
      <trkpt lat="48.70071" lon="7.17126">
        <ele>378.6</ele>
        <time>2023-10-03T17:39:53Z</time>
      </trkpt>
      <trkpt lat="48.70088" lon="7.17108">
        <ele>377</ele>
        <time>2023-10-03T17:39:59Z</time>
      </trkpt>
      <trkpt lat="48.70105" lon="7.1709">
        <ele>375.4</ele>
        <time>2023-10-03T17:40:05Z</time>
      </trkpt>
      <trkpt lat="48.7012" lon="7.17074">
        <ele>373.9</ele>
        <time>2023-10-03T17:40:10Z</time>
      </trkpt>
      <trkpt lat="48.70132" lon="7.17054">
        <ele>372.9</ele>
        <time>2023-10-03T17:40:15Z</time>
      </trkpt>
      <trkpt lat="48.70145" lon="7.17033">
        <ele>371.2</ele>
        <time>2023-10-03T17:40:21Z</time>
      </trkpt>
      <trkpt lat="48.70162" lon="7.17021">
        <ele>369.6</ele>
        <time>2023-10-03T17:40:26Z</time>
      </trkpt>
      <trkpt lat="48.7018" lon="7.17006">
        <ele>368</ele>
        <time>2023-10-03T17:40:31Z</time>
      </trkpt>
      <trkpt lat="48.70199" lon="7.1699">
        <ele>366.5</ele>
        <time>2023-10-03T17:40:36Z</time>
      </trkpt>
      <trkpt lat="48.70215" lon="7.16977">
        <ele>365.6</ele>
        <time>2023-10-03T17:40:40Z</time>
      </trkpt>
      <trkpt lat="48.70235" lon="7.16962">
        <ele>364.5</ele>
        <time>2023-10-03T17:40:45Z</time>
      </trkpt>
      <trkpt lat="48.70255" lon="7.16947">
        <ele>363.2</ele>
        <time>2023-10-03T17:40:50Z</time>
      </trkpt>
      <trkpt lat="48.70275" lon="7.16932">
        <ele>361.5</ele>
        <time>2023-10-03T17:40:55Z</time>
      </trkpt>
      <trkpt lat="48.70291" lon="7.16921">
        <ele>360.1</ele>
        <time>2023-10-03T17:40:59Z</time>
      </trkpt>
      <trkpt lat="48.70312" lon="7.16908">
        <ele>358.1</ele>
        <time>2023-10-03T17:41:04Z</time>
      </trkpt>
      <trkpt lat="48.7033" lon="7.16896">
        <ele>356.5</ele>
        <time>2023-10-03T17:41:08Z</time>
      </trkpt>
      <trkpt lat="48.70347" lon="7.16885">
        <ele>355.2</ele>
        <time>2023-10-03T17:41:12Z</time>
      </trkpt>
      <trkpt lat="48.70364" lon="7.16874">
        <ele>354.3</ele>
        <time>2023-10-03T17:41:16Z</time>
      </trkpt>
      <trkpt lat="48.70384" lon="7.1686">
        <ele>353.8</ele>
        <time>2023-10-03T17:41:21Z</time>
      </trkpt>
      <trkpt lat="48.70402" lon="7.16845">
        <ele>353.6</ele>
        <time>2023-10-03T17:41:26Z</time>
      </trkpt>
      <trkpt lat="48.70409" lon="7.16837">
        <ele>353.7</ele>
        <time>2023-10-03T17:41:28Z</time>
      </trkpt>
      <trkpt lat="48.70424" lon="7.16818">
        <ele>353.7</ele>
        <time>2023-10-03T17:41:33Z</time>
      </trkpt>
      <trkpt lat="48.70438" lon="7.16799">
        <ele>353.8</ele>
        <time>2023-10-03T17:41:38Z</time>
      </trkpt>
      <trkpt lat="48.70453" lon="7.16778">
        <ele>354.2</ele>
        <time>2023-10-03T17:41:44Z</time>
      </trkpt>
      <trkpt lat="48.70467" lon="7.16758">
        <ele>354.8</ele>
        <time>2023-10-03T17:41:50Z</time>
      </trkpt>
      <trkpt lat="48.70482" lon="7.16736">
        <ele>355.6</ele>
        <time>2023-10-03T17:41:57Z</time>
      </trkpt>
      <trkpt lat="48.70493" lon="7.16714">
        <ele>356.1</ele>
        <time>2023-10-03T17:42:03Z</time>
      </trkpt>
      <trkpt lat="48.70505" lon="7.16693">
        <ele>356.5</ele>
        <time>2023-10-03T17:42:09Z</time>
      </trkpt>
      <trkpt lat="48.70516" lon="7.1667">
        <ele>356.6</ele>
        <time>2023-10-03T17:42:15Z</time>
      </trkpt>
      <trkpt lat="48.70528" lon="7.16647">
        <ele>356.3</ele>
        <time>2023-10-03T17:42:21Z</time>
      </trkpt>
      <trkpt lat="48.70542" lon="7.16623">
        <ele>355.7</ele>
        <time>2023-10-03T17:42:27Z</time>
      </trkpt>
      <trkpt lat="48.70556" lon="7.166">
        <ele>354.9</ele>
        <time>2023-10-03T17:42:33Z</time>
      </trkpt>
      <trkpt lat="48.70571" lon="7.16578">
        <ele>354</ele>
        <time>2023-10-03T17:42:39Z</time>
      </trkpt>
      <trkpt lat="48.70585" lon="7.16554">
        <ele>353.2</ele>
        <time>2023-10-03T17:42:45Z</time>
      </trkpt>
      <trkpt lat="48.70599" lon="7.16532">
        <ele>352.3</ele>
        <time>2023-10-03T17:42:51Z</time>
      </trkpt>
      <trkpt lat="48.70612" lon="7.16509">
        <ele>351.3</ele>
        <time>2023-10-03T17:42:57Z</time>
      </trkpt>
      <trkpt lat="48.70625" lon="7.16486">
        <ele>350.2</ele>
        <time>2023-10-03T17:43:03Z</time>
      </trkpt>
      <trkpt lat="48.70639" lon="7.16461">
        <ele>349.2</ele>
        <time>2023-10-03T17:43:09Z</time>
      </trkpt>
      <trkpt lat="48.70652" lon="7.16437">
        <ele>348.3</ele>
        <time>2023-10-03T17:43:15Z</time>
      </trkpt>
      <trkpt lat="48.70663" lon="7.16414">
        <ele>347.3</ele>
        <time>2023-10-03T17:43:21Z</time>
      </trkpt>
      <trkpt lat="48.70675" lon="7.16389">
        <ele>345.7</ele>
        <time>2023-10-03T17:43:27Z</time>
      </trkpt>
      <trkpt lat="48.70688" lon="7.16364">
        <ele>343.8</ele>
        <time>2023-10-03T17:43:33Z</time>
      </trkpt>
      <trkpt lat="48.707" lon="7.16342">
        <ele>342.2</ele>
        <time>2023-10-03T17:43:38Z</time>
      </trkpt>
      <trkpt lat="48.70712" lon="7.1632">
        <ele>340.4</ele>
        <time>2023-10-03T17:43:43Z</time>
      </trkpt>
      <trkpt lat="48.70725" lon="7.16297">
        <ele>338.6</ele>
        <time>2023-10-03T17:43:48Z</time>
      </trkpt>
      <trkpt lat="48.70738" lon="7.16273">
        <ele>336.8</ele>
        <time>2023-10-03T17:43:53Z</time>
      </trkpt>
      <trkpt lat="48.70752" lon="7.16249">
        <ele>334.7</ele>
        <time>2023-10-03T17:43:58Z</time>
      </trkpt>
      <trkpt lat="48.70766" lon="7.16227">
        <ele>332.7</ele>
        <time>2023-10-03T17:44:03Z</time>
      </trkpt>
      <trkpt lat="48.70781" lon="7.16206">
        <ele>330.8</ele>
        <time>2023-10-03T17:44:08Z</time>
      </trkpt>
      <trkpt lat="48.70796" lon="7.16183">
        <ele>329</ele>
        <time>2023-10-03T17:44:13Z</time>
      </trkpt>
      <trkpt lat="48.7081" lon="7.16161">
        <ele>327.3</ele>
        <time>2023-10-03T17:44:18Z</time>
      </trkpt>
      <trkpt lat="48.70827" lon="7.16138">
        <ele>325.4</ele>
        <time>2023-10-03T17:44:23Z</time>
      </trkpt>
      <trkpt lat="48.70834" lon="7.16131">
        <ele>324.5</ele>
        <time>2023-10-03T17:44:25Z</time>
      </trkpt>
      <trkpt lat="48.70846" lon="7.16128">
        <ele>324</ele>
        <time>2023-10-03T17:44:28Z</time>
      </trkpt>
      <trkpt lat="48.70865" lon="7.16131">
        <ele>323.2</ele>
        <time>2023-10-03T17:44:33Z</time>
      </trkpt>
      <trkpt lat="48.70886" lon="7.16134">
        <ele>322.4</ele>
        <time>2023-10-03T17:44:38Z</time>
      </trkpt>
      <trkpt lat="48.70907" lon="7.16139">
        <ele>321.5</ele>
        <time>2023-10-03T17:44:44Z</time>
      </trkpt>
      <trkpt lat="48.70926" lon="7.16143">
        <ele>320.8</ele>
        <time>2023-10-03T17:44:49Z</time>
      </trkpt>
      <trkpt lat="48.70945" lon="7.16147">
        <ele>320.1</ele>
        <time>2023-10-03T17:44:54Z</time>
      </trkpt>
      <trkpt lat="48.70963" lon="7.16153">
        <ele>319.5</ele>
        <time>2023-10-03T17:44:59Z</time>
      </trkpt>
      <trkpt lat="48.70982" lon="7.16159">
        <ele>318.9</ele>
        <time>2023-10-03T17:45:04Z</time>
      </trkpt>
      <trkpt lat="48.71001" lon="7.16164">
        <ele>318.5</ele>
        <time>2023-10-03T17:45:09Z</time>
      </trkpt>
      <trkpt lat="48.71019" lon="7.16169">
        <ele>318.3</ele>
        <time>2023-10-03T17:45:14Z</time>
      </trkpt>
      <trkpt lat="48.71037" lon="7.16174">
        <ele>318.1</ele>
        <time>2023-10-03T17:45:19Z</time>
      </trkpt>
      <trkpt lat="48.71056" lon="7.16181">
        <ele>318</ele>
        <time>2023-10-03T17:45:24Z</time>
      </trkpt>
      <trkpt lat="48.71074" lon="7.16191">
        <ele>317.9</ele>
        <time>2023-10-03T17:45:29Z</time>
      </trkpt>
      <trkpt lat="48.71091" lon="7.16208">
        <ele>317.6</ele>
        <time>2023-10-03T17:45:34Z</time>
      </trkpt>
      <trkpt lat="48.71106" lon="7.16228">
        <ele>317.5</ele>
        <time>2023-10-03T17:45:39Z</time>
      </trkpt>
      <trkpt lat="48.71119" lon="7.16248">
        <ele>317.3</ele>
        <time>2023-10-03T17:45:44Z</time>
      </trkpt>
      <trkpt lat="48.71133" lon="7.16265">
        <ele>317</ele>
        <time>2023-10-03T17:45:49Z</time>
      </trkpt>
      <trkpt lat="48.71149" lon="7.16279">
        <ele>316.6</ele>
        <time>2023-10-03T17:45:55Z</time>
      </trkpt>
      <trkpt lat="48.7115" lon="7.1629">
        <ele>316.4</ele>
        <time>2023-10-03T17:45:58Z</time>
      </trkpt>
    </trkseg>
  </trk>
</gpx>